Lady Debora — V2QG7 — position and weather

sailwx.info

Track history (hours):
 
Tides and Currents Weather Stations Pressure Air Temp Water Temp Dewpoint Dewpoint Depression Visibility Wind Speed Wind Dir Waves Ship Positions

Lady Debora

Last reported at 2017-Sep-21 02:36 UTC. Time now 2017-Sep-25 15:30 UTC.
Position N 36°55' E 002°44'.

Length 107 m; draft 6.6 m.

Type: Cargo ship. MMSI: 304010760.

Date/timePositionNaut miles runAvg speedWind from/ knotsBaromVisibWave heightAir tempDewpointWater temp
2017-Sep-21 02:36N 36°55' E 002°44'110.2
2017-Sep-21 02:30N 36°55' E 002°43'510.2
2017-Sep-21 01:58N 36°55' E 002°36'510.3
2017-Sep-21 01:30N 36°54' E 002°30'21 9.9
2017-Sep-20 23:20N 36°51' E 002°04'3 8.4
2017-Sep-20 23:00N 36°50' E 002°00'6 9.2
2017-Sep-20 22:19N 36°50' E 001°53'7 9.0
2017-Sep-20 21:33N 36°49' E 001°44'0 9.0
2017-Sep-20 21:30N 36°48' E 001°44'4 8.9
2017-Sep-20 21:00N 36°48' E 001°38'5 8.8
2017-Sep-20 20:30N 36°47' E 001°32'16 9.1
2017-Sep-20 18:45N 36°45' E 001°13'2 9.3
2017-Sep-20 18:30N 36°45' E 001°10'31210.5
2017-Sep-19 12:51N 35°59' W 005°13'411.7
2017-Sep-19 12:30N 35°58' W 005°18'611.7
2017-Sep-19 12:00N 35°57' W 005°25'17310.1
2017-Sep-18 18:53N 36°29' W 008°55'10610.0
2017-Sep-18 08:19N 38°04' W 009°55'410.4
2017-Sep-18 07:58N 38°08' W 009°56'2010.5
2017-Sep-18 06:06N 38°27' W 010°02'311.3
2017-Sep-18 05:51N 38°29' W 010°02'411.0
2017-Sep-18 05:30N 38°33' W 010°04'610.8
2017-Sep-18 04:58N 38°39' W 010°05'511.0
2017-Sep-18 04:30N 38°44' W 010°06'510.9
2017-Sep-18 04:00N 38°49' W 010°06'510.5
2017-Sep-18 03:30N 38°54' W 010°06'510.8
2017-Sep-18 03:00N 38°60' W 010°06'510.7
2017-Sep-18 02:30N 39°05' W 010°06'510.6
2017-Sep-18 02:00N 39°11' W 010°06'510.5
2017-Sep-18 01:29N 39°16' W 010°06'610.2
2017-Sep-18 00:55N 39°22' W 010°06'510.4
2017-Sep-18 00:23N 39°27' W 010°06'  
2017-Sep-15 02:51N 49°35' W 004°00'3 8.6
2017-Sep-15 02:30N 49°36' W 003°56'4 8.5
2017-Sep-15 02:00N 49°38' W 003°51'4 8.3
2017-Sep-15 01:30N 49°40' W 003°45'4 8.2
2017-Sep-15 01:00N 49°42' W 003°40'4 8.3
2017-Sep-15 00:30N 49°45' W 003°34'4 8.1
2017-Sep-15 00:00N 49°47' W 003°29'4 8.4
2017-Sep-14 23:30N 49°49' W 003°23'4 8.6
2017-Sep-14 23:00N 49°51' W 003°18'4 9.0
2017-Sep-14 22:30N 49°53' W 003°12'5 9.2
2017-Sep-14 22:00N 49°55' W 003°05'5 9.4
2017-Sep-14 21:30N 49°58' W 002°59'5 9.4
2017-Sep-14 21:00N 49°59' W 002°52'31 9.4
2017-Sep-14 17:42N 50°03' W 002°04'2 8.0
2017-Sep-14 17:30N 50°02' W 002°01'4 7.8
2017-Sep-14 17:00N 50°01' W 001°55'4 7.2
2017-Sep-14 16:29N 50°00' W 001°50'3 6.8
2017-Sep-14 16:01N 49°58' W 001°46'3 6.3
2017-Sep-14 15:31N 49°57' W 001°41'3 5.9
2017-Sep-14 15:00N 49°56' W 001°37'3 5.4
2017-Sep-14 14:30N 49°55' W 001°33'3 5.1
2017-Sep-14 14:00N 49°54' W 001°29'2 5.0
2017-Sep-14 13:31N 49°53' W 001°26'3 5.1
2017-Sep-14 13:01N 49°52' W 001°22'2 4.9
2017-Sep-14 12:31N 49°51' W 001°19'2 4.9
2017-Sep-14 12:00N 49°50' W 001°16'3 5.3
2017-Sep-14 11:31N 49°48' W 001°12'3 5.9
2017-Sep-14 11:00N 49°46' W 001°10'4 7.7
2017-Sep-14 10:30N 49°42' W 001°10'5 9.4
2017-Sep-14 10:00N 49°37' W 001°09'  
2017-Sep-11 05:27N 49°33' W 001°07'3 5.7
2017-Sep-11 05:00N 49°35' W 001°04'3 6.9
2017-Sep-11 04:31N 49°37' W 001°00'4 8.5
2017-Sep-11 04:00N 49°40' W 000°56'7 8.2
2017-Sep-11 03:07N 49°45' W 000°48'1 7.6
2017-Sep-11 03:00N 49°46' W 000°46'  
Track history (hours):
 
Tides and Currents Weather Stations Pressure Air Temp Water Temp Dewpoint Dewpoint Depression Visibility Wind Speed Wind Dir Waves Ship Positions

Lady Debora

Last reported at 2017-Sep-21 02:36 UTC. Time now 2017-Sep-25 15:30 UTC.
Position N 36°55' E 002°44'.

Length 107 m; draft 6.6 m.

Type: Cargo ship. MMSI: 304010760.

Date/timePositionNaut miles runAvg speedWind from/ knotsBaromVisibWave heightAir tempDewpointWater temp
2017-Sep-21 02:36N 36°55' E 002°44'110.2
2017-Sep-21 02:30N 36°55' E 002°43'510.2
2017-Sep-21 01:58N 36°55' E 002°36'510.3
2017-Sep-21 01:30N 36°54' E 002°30'21 9.9
2017-Sep-20 23:20N 36°51' E 002°04'3 8.4
2017-Sep-20 23:00N 36°50' E 002°00'6 9.2
2017-Sep-20 22:19N 36°50' E 001°53'7 9.0
2017-Sep-20 21:33N 36°49' E 001°44'0 9.0
2017-Sep-20 21:30N 36°48' E 001°44'4 8.9
2017-Sep-20 21:00N 36°48' E 001°38'5 8.8
2017-Sep-20 20:30N 36°47' E 001°32'16 9.1
2017-Sep-20 18:45N 36°45' E 001°13'2 9.3
2017-Sep-20 18:30N 36°45' E 001°10'31210.5
2017-Sep-19 12:51N 35°59' W 005°13'411.7
2017-Sep-19 12:30N 35°58' W 005°18'611.7
2017-Sep-19 12:00N 35°57' W 005°25'17310.1
2017-Sep-18 18:53N 36°29' W 008°55'10610.0
2017-Sep-18 08:19N 38°04' W 009°55'410.4
2017-Sep-18 07:58N 38°08' W 009°56'2010.5
2017-Sep-18 06:06N 38°27' W 010°02'311.3
2017-Sep-18 05:51N 38°29' W 010°02'411.0
2017-Sep-18 05:30N 38°33' W 010°04'610.8
2017-Sep-18 04:58N 38°39' W 010°05'511.0
2017-Sep-18 04:30N 38°44' W 010°06'510.9
2017-Sep-18 04:00N 38°49' W 010°06'510.5
2017-Sep-18 03:30N 38°54' W 010°06'510.8
2017-Sep-18 03:00N 38°60' W 010°06'510.7
2017-Sep-18 02:30N 39°05' W 010°06'510.6
2017-Sep-18 02:00N 39°11' W 010°06'510.5
2017-Sep-18 01:29N 39°16' W 010°06'610.2
2017-Sep-18 00:55N 39°22' W 010°06'510.4
2017-Sep-18 00:23N 39°27' W 010°06'  
2017-Sep-15 02:51N 49°35' W 004°00'3 8.6
2017-Sep-15 02:30N 49°36' W 003°56'4 8.5
2017-Sep-15 02:00N 49°38' W 003°51'4 8.3
2017-Sep-15 01:30N 49°40' W 003°45'4 8.2
2017-Sep-15 01:00N 49°42' W 003°40'4 8.3
2017-Sep-15 00:30N 49°45' W 003°34'4 8.1
2017-Sep-15 00:00N 49°47' W 003°29'4 8.4
2017-Sep-14 23:30N 49°49' W 003°23'4 8.6
2017-Sep-14 23:00N 49°51' W 003°18'4 9.0
2017-Sep-14 22:30N 49°53' W 003°12'5 9.2
2017-Sep-14 22:00N 49°55' W 003°05'5 9.4
2017-Sep-14 21:30N 49°58' W 002°59'5 9.4
2017-Sep-14 21:00N 49°59' W 002°52'31 9.4
2017-Sep-14 17:42N 50°03' W 002°04'2 8.0
2017-Sep-14 17:30N 50°02' W 002°01'4 7.8
2017-Sep-14 17:00N 50°01' W 001°55'4 7.2
2017-Sep-14 16:29N 50°00' W 001°50'3 6.8
2017-Sep-14 16:01N 49°58' W 001°46'3 6.3
2017-Sep-14 15:31N 49°57' W 001°41'3 5.9
2017-Sep-14 15:00N 49°56' W 001°37'3 5.4
2017-Sep-14 14:30N 49°55' W 001°33'3 5.1
2017-Sep-14 14:00N 49°54' W 001°29'2 5.0
2017-Sep-14 13:31N 49°53' W 001°26'3 5.1
2017-Sep-14 13:01N 49°52' W 001°22'2 4.9
2017-Sep-14 12:31N 49°51' W 001°19'2 4.9
2017-Sep-14 12:00N 49°50' W 001°16'3 5.3
2017-Sep-14 11:31N 49°48' W 001°12'3 5.9
2017-Sep-14 11:00N 49°46' W 001°10'4 7.7
2017-Sep-14 10:30N 49°42' W 001°10'5 9.4
2017-Sep-14 10:00N 49°37' W 001°09'  
2017-Sep-11 05:27N 49°33' W 001°07'3 5.7
2017-Sep-11 05:00N 49°35' W 001°04'3 6.9
2017-Sep-11 04:31N 49°37' W 001°00'4 8.5
2017-Sep-11 04:00N 49°40' W 000°56'7 8.2
2017-Sep-11 03:07N 49°45' W 000°48'1 7.6
2017-Sep-11 03:00N 49°46' W 000°46'  

Dump ship's entire track history